Latest Coastal Weather Observations for Lihou Reef Lighthouse

IDQ60701

Issued at 2:51 am EST Thursday 2 July 2015 (issued every 10 minutes, with the page automatically refreshed every 10 minutes)

About coastal observations | Map of coastal stations | Coastal observations for QLD | Marine services | Other Formats
Station Details ID: 200880 Name: LIHOU REEF LIGHTHOUSE Lat: -17.13 Lon: 152.15 Height: 0.0 m
Data from the previous 72 hours. | See also: Recent months for locations in Queensland
Date/Time
EST
Temp

°C
Wind Pressure Rain
since 9am
mm
Weather Cloud Vis
km
Sea
Height
m
Swell
Dir
 
Speed
knots
Gust
knots
hPa Trend Height
m
Period
s
Dir
02/02:30am 23.6 SSE 20 25 1015.7 - - - - - - - - -
02/02:00am 24.2 SSE 21 26 1015.6 - - - - - - - - -
02/01:30am 24.3 SE 23 27 1016.1 - - - - - - - - -
02/01:00am 24.0 SE 23 27 1016.3 - - - - - - - - -
02/12:30am 24.2 SE 22 27 1016.5 - - - - - - - - -
02/12:00am 24.3 SE 22 26 1016.6 - - - - - - - - -
 
Date/Time
EST
Temp

°C
Wind Pressure Rain
since 9am
mm
Weather Cloud Vis
km
Sea
Height
m
Swell
Dir
 
Speed
knots
Gust
knots
hPa Trend Height
m
Period
s
Dir
01/11:30pm 24.3 SE 21 25 1016.8 - - - - - - - - -
01/11:00pm 24.4 SSE 21 26 1016.9 - - - - - - - - -
01/10:30pm 24.4 SE 21 24 1017.3 - - - - - - - - -
01/10:00pm 24.3 SE 22 25 1017.4 - - - - - - - - -
01/09:30pm 24.4 SE 21 26 1017.6 - - - - - - - - -
01/09:00pm 24.5 SE 21 27 1017.6 - - - - - - - - -
01/08:30pm 24.5 SE 21 27 1017.6 - - - - - - - - -
01/08:00pm 24.4 SE 23 28 1017.3 - - - - - - - - -
01/07:30pm 24.4 SE 23 28 1017.0 - - - - - - - - -
01/07:00pm 24.3 SE 21 25 1016.7 - - - - - - - - -
01/06:30pm 24.4 SE 22 26 1016.3 - - - - - - - - -
01/06:00pm 24.5 SE 21 26 1016.1 - - - - - - - - -
01/05:30pm 24.4 SE 22 25 1015.7 - - - - - - - - -
01/05:00pm 24.6 SE 21 26 1015.6 - - - - - - - - -
01/04:30pm 24.5 SE 20 23 1015.5 - - - - - - - - -
01/04:00pm 24.6 SE 21 25 1015.5 - - - - - - - - -
01/03:30pm 24.6 SE 22 26 1015.4 - - - - - - - - -
01/03:00pm 24.6 SE 19 23 1015.6 - - - - - - - - -
01/02:30pm 24.6 SE 20 23 1015.8 - - - - - - - - -
01/02:00pm 24.6 SE 20 25 1015.8 - - - - - - - - -
01/01:30pm 24.5 SE 21 24 1015.9 - - - - - - - - -
01/01:00pm 24.7 SE 20 22 1016.3 - - - - - - - - -
01/12:30pm 24.6 SE 20 23 1016.8 - - - - - - - - -
01/12:00pm 24.5 SE 18 22 1017.1 - - - - - - - - -
01/11:30am 24.7 SE 20 24 1017.6 - - - - - - - - -
01/11:00am 24.7 SSE 20 23 1017.9 - - - - - - - - -
01/10:30am 24.6 SE 20 24 1018.2 - - - - - - - - -
01/10:00am 24.7 SE 20 24 1018.4 - - - - - - - - -
01/09:30am 24.6 SE 21 24 1018.6 - - - - - - - - -
01/09:00am 24.7 SE 18 22 1018.8 - - - - - - - - -
01/08:30am 24.6 SE 20 24 1018.7 - - - - - - - - -
01/08:00am 24.4 SE 20 24 1018.4 - - - - - - - - -
01/07:30am 24.6 SE 18 21 1018.0 - - - - - - - - -
01/07:00am 24.4 SE 19 22 1017.8 - - - - - - - - -
01/06:30am 24.4 SE 19 22 1017.6 - - - - - - - - -
01/06:00am 24.4 SE 18 21 1017.4 - - - - - - - - -
01/05:30am 24.4 SE 18 21 1017.0 - - - - - - - - -
01/05:00am 24.4 SE 17 20 1016.8 - - - - - - - - -
01/04:30am 24.5 SE 17 20 1016.7 - - - - - - - - -
01/04:00am 24.4 SE 18 20 1016.4 - - - - - - - - -
01/03:30am 24.5 SE 17 21 1016.5 - - - - - - - - -
01/03:00am 24.5 SE 18 20 1016.6 - - - - - - - - -
01/02:30am 24.5 SE 18 21 1016.6 - - - - - - - - -
01/02:00am 24.5 SE 17 20 1016.7 - - - - - - - - -
01/01:30am 24.6 SE 18 21 1017.0 - - - - - - - - -
01/01:00am 24.8 SE 17 20 1017.3 - - - - - - - - -
01/12:30am 24.7 SE 17 20 1017.4 - - - - - - - - -
01/12:00am 24.8 SE 19 22 1017.6 - - - - - - - - -
 
Date/Time
EST
Temp

°C
Wind Pressure Rain
since 9am
mm
Weather Cloud Vis
km
Sea
Height
m
Swell
Dir
 
Speed
knots
Gust
knots
hPa Trend Height
m
Period
s
Dir
30/11:30pm 24.8 ESE 18 21 1017.6 - - - - - - - - -
30/11:00pm 25.0 ESE 18 21 1017.8 - - - - - - - - -
30/10:30pm 25.0 ESE 18 21 1017.9 - - - - - - - - -
30/10:00pm 25.1 ESE 17 21 1018.2 - - - - - - - - -
30/09:30pm 25.1 ESE 16 19 1018.3 - - - - - - - - -
30/09:00pm 25.1 ESE 18 21 1018.3 - - - - - - - - -
30/08:30pm 25.1 ESE 17 21 1018.1 - - - - - - - - -
30/08:00pm 25.1 ESE 17 21 1017.8 - - - - - - - - -
30/07:30pm 25.1 ESE 17 20 1017.7 - - - - - - - - -
30/07:00pm 25.1 ESE 17 20 1017.3 - - - - - - - - -
30/06:30pm 25.1 ESE 18 20 1017.0 - - - - - - - - -
30/06:00pm 25.1 ESE 18 21 1016.7 - - - - - - - - -
30/05:30pm 25.1 E 18 23 1016.7 - - - - - - - - -
30/05:00pm 24.6 E 16 21 1016.3 - - - - - - - - -
30/04:30pm 25.1 ESE 19 23 1016.0 - - - - - - - - -
30/04:00pm 24.7 ESE 18 22 1015.8 - - - - - - - - -
30/03:30pm 24.4 ESE 22 27 1015.7 - - - - - - - - -
30/03:00pm 23.7 ESE 23 29 1015.8 - - - - - - - - -
30/02:30pm 24.3 ESE 20 23 1015.9 - - - - - - - - -
30/02:00pm 24.3 ESE 21 25 1016.1 - - - - - - - - -
30/01:30pm 24.2 ESE 22 26 1016.0 - - - - - - - - -
30/01:00pm 23.8 ESE 20 25 1016.5 - - - - - - - - -
30/12:30pm 23.8 ESE 22 25 1017.0 - - - - - - - - -
30/12:23pm 24.0 ESE 20 23 1017.0 - - - - - - - - -
30/12:15pm 24.0 ESE 19 23 1017.2 - - - - - - - - -
30/12:00pm 23.3 SSE 18 21 1017.5 - - - - - - - - -
30/11:30am 23.3 ESE 18 21 1018.1 - - - - - - - - -
30/11:00am 23.9 SE 22 27 1018.0 - - - - - - - - -
30/10:30am 24.1 SE 20 25 1018.3 - - - - - - - - -
30/10:00am 24.1 SE 20 24 1018.6 - - - - - - - - -
30/09:30am 24.2 SE 21 24 1018.9 - - - - - - - - -
30/09:00am 24.0 SE 21 23 1018.9 - - - - - - - - -
30/08:30am 23.8 ESE 21 24 1018.7 - - - - - - - - -
30/08:00am 24.0 ESE 22 26 1018.4 - - - - - - - - -
30/07:30am 24.4 SE 21 25 1018.0 - - - - - - - - -
30/07:00am 24.5 ESE 21 26 1017.9 - - - - - - - - -
30/06:30am 24.4 ESE 21 24 1017.5 - - - - - - - - -
30/06:00am 24.3 ESE 20 23 1017.2 - - - - - - - - -
30/05:30am 24.4 ESE 20 24 1017.0 - - - - - - - - -
30/05:00am 24.5 ESE 21 25 1016.9 - - - - - - - - -
30/04:30am 24.3 SE 20 24 1016.7 - - - - - - - - -
30/04:00am 24.3 ESE 22 26 1016.6 - - - - - - - - -
30/03:30am 24.5 ESE 22 25 1016.6 - - - - - - - - -
30/03:00am 24.4 ESE 23 26 1016.6 - - - - - - - - -
30/02:30am 24.5 ESE 23 27 1016.7 - - - - - - - - -
30/02:00am 24.4 ESE 23 26 1016.8 - - - - - - - - -
30/01:30am 24.5 ESE 23 27 1017.0 - - - - - - - - -
30/01:00am 24.4 ESE 23 27 1017.2 - - - - - - - - -
30/12:30am 24.5 ESE 23 27 1017.3 - - - - - - - - -
30/12:00am 24.6 ESE 22 27 1017.5 - - - - - - - - -
 
Date/Time
EST
Temp

°C
Wind Pressure Rain
since 9am
mm
Weather Cloud Vis
km
Sea
Height
m
Swell
Dir
 
Speed
knots
Gust
knots
hPa Trend Height
m
Period
s
Dir
29/11:30pm 24.5 ESE 23 28 1017.6 - - - - - - - - -
29/11:00pm 24.6 ESE 23 28 1017.9 - - - - - - - - -
29/10:30pm 24.7 ESE 23 27 1018.1 - - - - - - - - -
29/10:00pm 24.8 ESE 23 29 1018.2 - - - - - - - - -
29/09:30pm 24.6 ESE 22 25 1018.2 - - - - - - - - -
29/09:00pm 24.7 ESE 23 28 1018.2 - - - - - - - - -
29/08:30pm 24.6 ESE 23 28 1018.0 - - - - - - - - -
29/08:00pm 24.7 ESE 23 27 1017.9 - - - - - - - - -
29/07:30pm 24.7 ESE 24 28 1017.6 - - - - - - - - -
29/07:00pm 24.9 ESE 23 28 1017.3 - - - - - - - - -
29/06:30pm 24.8 ESE 24 28 1017.0 - - - - - - - - -
29/06:00pm 24.9 ESE 24 28 1016.8 - - - - - - - - -
29/05:30pm 25.0 ESE 21 25 1016.8 - - - - - - - - -
29/05:00pm 24.7 ESE 23 28 1016.6 - - - - - - - - -
29/04:30pm 24.8 ESE 22 26 1016.6 - - - - - - - - -
29/04:00pm 25.0 ESE 22 28 1016.5 - - - - - - - - -
29/03:30pm 25.2 ESE 21 24 1016.6 - - - - - - - - -
29/03:00pm 25.2 ESE 22 26 1016.5 - - - - - - - - -
29/02:30pm 25.1 ESE 22 26 1016.4 - - - - - - - - -
29/02:00pm 25.3 ESE 21 26 1016.6 - - - - - - - - -
29/01:30pm 25.4 ESE 22 27 1016.9 - - - - - - - - -
29/01:00pm 25.4 ESE 22 26 1017.2 - - - - - - - - -
29/12:30pm 25.1 ESE 23 26 1017.6 - - - - - - - - -
29/12:00pm 25.3 ESE 22 26 1018.1 - - - - - - - - -
29/11:30am 25.0 ESE 23 27 1018.4 - - - - - - - - -
29/11:00am 25.1 ESE 22 28 1018.7 - - - - - - - - -
29/10:30am 25.1 ESE 23 27 1019.0 - - - - - - - - -
29/10:00am 24.6 ESE 23 29 1018.9 - - - - - - - - -
29/09:30am 24.2 ESE 20 26 1019.2 - - - - - - - - -
29/09:09am 24.6 ESE 23 33 1019.2 - - - - - - - - -
29/09:00am 24.6 ESE 22 26 1019.2 - - - - - - - - -
29/08:30am 24.1 ESE 24 30 1019.1 - - - - - - - - -
29/08:00am 24.4 ESE 25 31 1018.6 - - - - - - - - -
29/07:30am 24.0 ESE 25 29 1018.3 - - - - - - - - -
29/07:00am 24.1 ESE 28 32 1017.8 - - - - - - - - -
29/06:30am 24.3 ESE 26 30 1017.6 - - - - - - - - -
29/06:00am 24.2 ESE 27 31 1017.2 - - - - - - - - -
29/05:30am 23.7 ESE 23 28 1017.1 - - - - - - - - -
29/05:00am 24.1 ESE 23 29 1016.9 - - - - - - - - -
29/04:30am 24.0 ESE 24 31 1016.8 - - - - - - - - -
29/04:00am 24.2 ESE 23 26 1016.7 - - - - - - - - -
29/03:30am 24.2 ESE 22 28 1016.5 - - - - - - - - -
29/03:00am 24.4 ESE 21 25 1016.6 - - - - - - - - -

Other Formats:

Comma delimited format used in spreadsheet applications
http://www.bom.gov.au/fwo/IDQ60701/IDQ60701.94293.axf

JavaScript Object Notation format (JSON) in row-major order
http://www.bom.gov.au/fwo/IDQ60701/IDQ60701.94293.json